Time,TemperatureF,DewpointF,PressureIn,WindDirection,WindDirectionDegrees,WindSpeedMPH,WindSpeedGustMPH,Humidity,HourlyPrecipIn,Conditions,Clouds,dailyrainin,SoftwareType,DateUTC
2013-09-12 00:01:00,76.6,74.4,30.08,NNE,30,0.0,0.0,93,0.00,,---,0.00,VWS V14.01,2013-09-12 04:01:00,
2013-09-12 00:06:00,76.4,74.2,30.08,NNE,28,0.0,0.0,93,0.00,,---,0.00,VWS V14.01,2013-09-12 04:06:00,
2013-09-12 00:11:00,76.4,74.2,30.08,NNE,29,0.0,0.0,93,0.00,,---,0.00,VWS V14.01,2013-09-12 04:11:00,
2013-09-12 00:16:00,76.3,74.1,30.08,NNE,29,0.0,0.0,93,0.00,,---,0.00,VWS V14.01,2013-09-12 04:16:00,
2013-09-12 00:21:00,76.3,74.1,30.08,NNE,29,0.0,0.0,93,0.00,,---,0.00,VWS V14.01,2013-09-12 04:21:00,
2013-09-12 00:26:00,76.4,74.2,30.08,NNE,29,0.0,0.0,93,0.00,,---,0.00,VWS V14.01,2013-09-12 04:26:00,
2013-09-12 00:31:00,76.4,74.2,30.08,NNE,29,0.0,0.0,93,0.00,,---,0.00,VWS V14.01,2013-09-12 04:31:00,
2013-09-12 00:36:00,76.4,74.2,30.08,NNE,29,0.0,0.0,93,0.00,,---,0.00,VWS V14.01,2013-09-12 04:36:00,
2013-09-12 00:41:00,76.5,74.3,30.08,NNE,29,0.0,0.0,93,0.00,,---,0.00,VWS V14.01,2013-09-12 04:41:00,
2013-09-12 00:46:00,76.4,74.2,30.08,NE,41,0.0,0.0,93,0.00,,---,0.00,VWS V14.01,2013-09-12 04:46:00,
2013-09-12 00:51:00,76.5,74.7,30.08,NE,41,0.0,0.0,94,0.00,,---,0.00,VWS V14.01,2013-09-12 04:51:00,
2013-09-12 00:56:00,76.6,74.8,30.08,NE,41,0.0,0.0,94,0.00,,---,0.00,VWS V14.01,2013-09-12 04:56:00,
2013-09-12 01:01:00,76.6,74.8,30.07,NE,41,0.0,0.0,94,0.00,,---,0.00,VWS V14.01,2013-09-12 05:01:00,
2013-09-12 01:06:00,76.5,74.7,30.07,NE,41,0.0,0.0,94,0.00,,---,0.00,VWS V14.01,2013-09-12 05:06:00,
2013-09-12 01:11:00,76.5,74.7,30.07,NNE,17,0.0,0.0,94,0.00,,---,0.00,VWS V14.01,2013-09-12 05:11:00,
2013-09-12 01:16:00,76.3,74.4,30.07,NNE,17,0.0,0.0,94,0.00,,---,0.00,VWS V14.01,2013-09-12 05:16:00,
2013-09-12 01:21:00,76.3,74.4,30.07,NNE,18,0.0,0.0,94,0.00,,---,0.00,VWS V14.01,2013-09-12 05:21:00,
2013-09-12 01:26:00,76.2,74.3,30.07,North,11,0.0,0.0,94,0.00,,---,0.00,VWS V14.01,2013-09-12 05:26:00,
2013-09-12 01:31:00,76.2,74.3,30.07,North,360,0.0,0.0,94,0.00,,---,0.00,VWS V14.01,2013-09-12 05:31:00,
2013-09-12 01:36:00,76.2,74.3,30.06,North,8,0.0,0.0,94,0.00,,---,0.00,VWS V14.01,2013-09-12 05:36:00,
2013-09-12 01:41:00,76.3,74.4,30.06,North,6,0.0,0.0,94,0.00,,---,0.00,VWS V14.01,2013-09-12 05:41:00,
2013-09-12 01:46:00,76.0,73.8,30.06,NE,39,0.0,0.0,93,0.00,,---,0.00,VWS V14.01,2013-09-12 05:46:00,
2013-09-12 01:51:00,76.0,73.8,30.06,NNE,12,0.0,0.0,93,0.00,,---,0.00,VWS V14.01,2013-09-12 05:51:00,
2013-09-12 01:56:00,76.1,74.2,30.06,NNE,20,0.0,0.0,94,0.00,,---,0.00,VWS V14.01,2013-09-12 05:56:00,
2013-09-12 02:01:00,76.2,74.3,30.06,NNE,22,0.0,0.0,94,0.00,,---,0.00,VWS V14.01,2013-09-12 06:01:00,
2013-09-12 02:06:00,76.2,74.3,30.06,North,359,0.0,0.0,94,0.00,,---,0.00,VWS V14.01,2013-09-12 06:06:00,
2013-09-12 02:11:00,76.2,74.3,30.06,North,10,0.0,0.0,94,0.00,,---,0.00,VWS V14.01,2013-09-12 06:11:00,
2013-09-12 02:16:00,76.2,74.3,30.06,NNE,18,0.0,0.0,94,0.00,,---,0.00,VWS V14.01,2013-09-12 06:16:00,
2013-09-12 02:21:00,76.2,74.3,30.06,North,1,0.0,0.0,94,0.00,,---,0.00,VWS V14.01,2013-09-12 06:21:00,
2013-09-12 02:26:00,76.0,74.2,30.05,North,8,0.0,0.0,94,0.00,,---,0.00,VWS V14.01,2013-09-12 06:26:00,
2013-09-12 02:31:00,76.0,74.2,30.06,North,359,0.0,0.0,94,0.00,,---,0.00,VWS V14.01,2013-09-12 06:31:00,
2013-09-12 02:36:00,75.9,74.1,30.06,NNE,15,0.0,0.0,94,0.00,,---,0.00,VWS V14.01,2013-09-12 06:36:00,
2013-09-12 02:41:00,75.8,73.9,30.06,NNE,23,0.0,0.0,94,0.00,,---,0.00,VWS V14.01,2013-09-12 06:41:00,
2013-09-12 02:46:00,75.8,73.9,30.06,North,8,0.0,0.0,94,0.00,,---,0.00,VWS V14.01,2013-09-12 06:46:00,
2013-09-12 02:51:00,75.9,74.1,30.06,North,4,0.0,0.0,94,0.00,,---,0.00,VWS V14.01,2013-09-12 06:51:00,
2013-09-12 02:56:00,75.8,73.9,30.06,NNE,17,0.0,0.0,94,0.00,,---,0.00,VWS V14.01,2013-09-12 06:56:00,
2013-09-12 03:01:00,75.8,73.9,30.05,NNE,29,0.0,0.0,94,0.00,,---,0.00,VWS V14.01,2013-09-12 07:01:00,
2013-09-12 03:06:00,75.7,73.8,30.05,NE,34,0.0,0.0,94,0.00,,---,0.00,VWS V14.01,2013-09-12 07:06:00,
2013-09-12 03:11:00,75.6,73.8,30.05,NE,34,0.0,0.0,94,0.00,,---,0.00,VWS V14.01,2013-09-12 07:11:00,
2013-09-12 03:16:00,75.6,73.8,30.05,NE,34,0.0,0.0,94,0.00,,---,0.00,VWS V14.01,2013-09-12 07:16:00,
2013-09-12 03:21:00,75.7,73.8,30.05,North,356,0.0,0.0,94,0.00,,---,0.00,VWS V14.01,2013-09-12 07:21:00,
2013-09-12 03:26:00,75.5,73.7,30.05,North,9,0.0,0.0,94,0.00,,---,0.00,VWS V14.01,2013-09-12 07:26:00,
2013-09-12 03:31:00,75.5,73.7,30.06,NE,34,0.0,0.0,94,0.00,,---,0.00,VWS V14.01,2013-09-12 07:31:00,
2013-09-12 08:17:00,74.3,72.2,30.05,NNE,22,2.0,3.0,93,0.00,,---,0.00,VWS V14.01,2013-09-12 12:17:00,
2013-09-12 08:22:00,74.7,72.2,30.05,NNE,33,2.0,4.0,92,0.00,,---,0.00,VWS V14.01,2013-09-12 12:22:00,
2013-09-12 08:27:00,74.9,72.4,30.05,North,360,4.0,4.0,92,0.00,,---,0.00,VWS V14.01,2013-09-12 12:27:00,
2013-09-12 08:32:00,75.1,72.6,30.05,NE,53,1.0,1.0,92,0.00,,---,0.00,VWS V14.01,2013-09-12 12:32:00,
2013-09-12 08:37:00,75.4,72.6,30.05,North,1,2.0,3.0,91,0.00,,---,0.00,VWS V14.01,2013-09-12 12:37:00,
2013-09-12 08:42:00,75.5,72.7,30.05,NNE,27,2.0,3.0,91,0.00,,---,0.00,VWS V14.01,2013-09-12 12:42:00,
2013-09-12 08:47:00,75.5,72.7,30.05,NE,37,2.0,3.0,91,0.00,,---,0.00,VWS V14.01,2013-09-12 12:47:00,
2013-09-12 08:52:00,75.7,72.6,30.05,NNE,30,3.0,3.0,90,0.00,,---,0.00,VWS V14.01,2013-09-12 12:52:00,
2013-09-12 08:57:00,76.2,73.1,30.05,ENE,67,1.0,3.0,90,0.00,,---,0.00,VWS V14.01,2013-09-12 12:57:00,
2013-09-12 09:02:00,76.8,73.3,30.05,ENE,58,2.0,2.0,89,0.00,,---,0.00,VWS V14.01,2013-09-12 13:02:00,
2013-09-12 09:07:00,77.4,73.9,30.05,East,81,0.0,1.0,89,0.00,,---,0.00,VWS V14.01,2013-09-12 13:07:00,
2013-09-12 09:12:00,78.1,74.3,30.05,ENE,68,1.0,2.0,88,0.00,,---,0.00,VWS V14.01,2013-09-12 13:12:00,
2013-09-12 09:17:00,78.5,74.0,30.05,ENE,78,0.0,0.0,86,0.00,,---,0.00,VWS V14.01,2013-09-12 13:17:00,
2013-09-12 09:22:00,78.9,74.0,30.05,ENE,59,0.0,0.0,85,0.00,,---,0.00,VWS V14.01,2013-09-12 13:22:00,
2013-09-12 09:27:00,79.2,73.9,30.05,NE,41,2.0,3.0,84,0.00,,---,0.00,VWS V14.01,2013-09-12 13:27:00,
2013-09-12 09:32:00,79.3,74.1,30.05,NNE,25,3.0,3.0,84,0.00,,---,0.00,VWS V14.01,2013-09-12 13:32:00,
2013-09-12 09:37:00,79.7,74.8,30.05,North,359,1.0,3.0,85,0.00,,---,0.00,VWS V14.01,2013-09-12 13:37:00,
2013-09-12 09:42:00,79.9,74.3,30.05,NW,319,3.0,3.0,83,0.00,,---,0.00,VWS V14.01,2013-09-12 13:42:00,
2013-09-12 09:47:00,80.2,74.2,30.05,North,11,1.0,3.0,82,0.00,,---,0.00,VWS V14.01,2013-09-12 13:47:00,
2013-09-12 09:52:00,80.2,73.1,30.05,North,352,4.0,5.0,79,0.00,,---,0.00,VWS V14.01,2013-09-12 13:52:00,
2013-09-12 09:57:00,80.4,73.3,30.04,NNW,328,1.0,5.0,79,0.00,,---,0.00,VWS V14.01,2013-09-12 13:57:00,
2013-09-12 10:01:00,80.6,73.1,30.05,North,360,4.0,5.0,78,0.00,,---,0.00,VWS V14.01,2013-09-12 14:01:00,
2013-09-12 10:06:00,80.8,73.7,30.05,North,8,2.0,4.0,79,0.00,,---,0.00,VWS V14.01,2013-09-12 14:06:00,
2013-09-12 10:11:00,80.9,73.4,30.05,NNE,12,1.0,2.0,78,0.00,,---,0.00,VWS V14.01,2013-09-12 14:11:00,
2013-09-12 10:16:00,81.3,73.0,30.04,NNW,338,0.0,3.0,76,0.00,,---,0.00,VWS V14.01,2013-09-12 14:16:00,
2013-09-12 10:21:00,81.5,72.4,30.04,NE,55,1.0,4.0,74,0.00,,---,0.00,VWS V14.01,2013-09-12 14:21:00,
2013-09-12 10:26:00,81.7,73.0,30.04,NW,313,0.0,2.0,75,0.00,,---,0.00,VWS V14.01,2013-09-12 14:26:00,
2013-09-12 10:31:00,82.2,73.1,30.04,North,9,3.0,4.0,74,0.00,,---,0.00,VWS V14.01,2013-09-12 14:31:00,
2013-09-12 10:36:00,82.4,72.9,30.04,West,271,1.0,3.0,73,0.00,,---,0.00,VWS V14.01,2013-09-12 14:36:00,
2013-09-12 10:41:00,82.6,72.7,30.04,West,281,1.0,3.0,72,0.00,,---,0.00,VWS V14.01,2013-09-12 14:41:00,
2013-09-12 10:46:00,83.0,72.2,30.04,NE,45,3.0,5.0,70,0.00,,---,0.00,VWS V14.01,2013-09-12 14:46:00,
2013-09-12 10:51:00,82.7,70.6,30.04,ENE,73,2.0,4.0,67,0.00,,---,0.00,VWS V14.01,2013-09-12 14:51:00,
2013-09-12 10:56:00,82.8,71.2,30.04,NE,34,3.0,6.0,68,0.00,,---,0.00,VWS V14.01,2013-09-12 14:56:00,
2013-09-12 11:01:00,82.7,70.6,30.04,NE,40,0.0,2.0,67,0.00,,---,0.00,VWS V14.01,2013-09-12 15:01:00,
2013-09-12 11:06:00,83.2,70.7,30.04,NE,53,2.0,6.0,66,0.00,,---,0.00,VWS V14.01,2013-09-12 15:06:00,
2013-09-12 11:11:00,83.3,70.3,30.03,ENE,59,3.0,5.0,65,0.00,,---,0.00,VWS V14.01,2013-09-12 15:11:00,
2013-09-12 11:16:00,83.5,70.5,30.03,ENE,61,2.0,2.0,65,0.00,,---,0.00,VWS V14.01,2013-09-12 15:16:00,
2013-09-12 11:21:00,83.6,70.1,30.03,ENE,64,3.0,4.0,64,0.00,,---,0.00,VWS V14.01,2013-09-12 15:21:00,
2013-09-12 11:26:00,83.8,69.9,30.03,ENE,70,4.0,5.0,63,0.00,,---,0.00,VWS V14.01,2013-09-12 15:26:00,
2013-09-12 11:31:00,83.8,70.8,30.03,East,87,1.0,1.0,65,0.00,,---,0.00,VWS V14.01,2013-09-12 15:31:00,
2013-09-12 11:36:00,84.2,70.2,30.03,ENE,66,2.0,4.0,63,0.00,,---,0.00,VWS V14.01,2013-09-12 15:36:00,
2013-09-12 11:41:00,84.4,69.0,30.03,NE,37,3.0,7.0,60,0.00,,---,0.00,VWS V14.01,2013-09-12 15:41:00,
2013-09-12 11:46:00,84.3,68.9,30.03,NW,321,0.0,2.0,60,0.00,,---,0.00,VWS V14.01,2013-09-12 15:46:00,
2013-09-12 11:51:00,84.8,68.9,30.03,North,9,3.0,3.0,59,0.00,,---,0.00,VWS V14.01,2013-09-12 15:51:00,
2013-09-12 11:56:00,84.8,68.4,30.03,ENE,57,0.0,3.0,58,0.00,,---,0.00,VWS V14.01,2013-09-12 15:56:00,
2013-09-12 12:01:00,84.8,68.4,30.03,SSE,149,0.0,0.0,58,0.00,,---,0.00,VWS V14.01,2013-09-12 16:01:00,
2013-09-12 12:06:00,84.9,68.5,30.03,SSE,158,1.0,2.0,58,0.00,,---,0.00,VWS V14.01,2013-09-12 16:06:00,
2013-09-12 12:11:00,85.3,68.9,30.03,SSE,153,2.0,3.0,58,0.00,,---,0.00,VWS V14.01,2013-09-12 16:11:00,
2013-09-12 12:16:00,85.4,69.0,30.02,NW,304,0.0,3.0,58,0.00,,---,0.00,VWS V14.01,2013-09-12 16:16:00,
2013-09-12 12:21:00,85.5,69.1,30.02,SE,146,0.0,2.0,58,0.00,,---,0.00,VWS V14.01,2013-09-12 16:21:00,
2013-09-12 12:26:00,86.0,69.5,30.02,SSE,151,0.0,0.0,58,0.00,,---,0.00,VWS V14.01,2013-09-12 16:26:00,
2013-09-12 12:31:00,86.3,69.3,30.02,SE,129,5.0,5.0,57,0.00,,---,0.00,VWS V14.01,2013-09-12 16:31:00,
2013-09-12 12:36:00,85.9,68.9,30.02,SE,131,0.0,3.0,57,0.00,,---,0.00,VWS V14.01,2013-09-12 16:36:00,
2013-09-12 12:41:00,85.8,73.6,30.01,SSW,194,4.0,6.0,67,0.00,,---,0.00,VWS V14.01,2013-09-12 16:41:00,
2013-09-12 12:46:00,85.2,73.0,30.01,ESE,115,3.0,4.0,67,0.00,,---,0.00,VWS V14.01,2013-09-12 16:46:00,
2013-09-12 12:51:00,84.7,72.1,30.01,ESE,110,0.0,1.0,66,0.00,,---,0.00,VWS V14.01,2013-09-12 16:51:00,
2013-09-12 12:56:00,85.0,72.8,30.00,South,179,2.0,5.0,67,0.00,,---,0.00,VWS V14.01,2013-09-12 16:56:00,
2013-09-12 13:01:00,85.3,72.7,30.00,SSE,148,1.0,2.0,66,0.00,,---,0.00,VWS V14.01,2013-09-12 17:01:00,
2013-09-12 13:06:00,86.0,72.9,30.00,West,276,6.0,7.0,65,0.00,,---,0.00,VWS V14.01,2013-09-12 17:06:00,
2013-09-12 13:11:00,85.8,72.2,30.00,West,270,3.0,4.0,64,0.00,,---,0.00,VWS V14.01,2013-09-12 17:11:00,
2013-09-12 13:16:00,85.8,71.8,30.00,SSW,200,0.0,3.0,63,0.00,,---,0.00,VWS V14.01,2013-09-12 17:16:00,
2013-09-12 13:21:00,86.1,73.9,30.00,WSW,243,4.0,6.0,67,0.00,,---,0.00,VWS V14.01,2013-09-12 17:21:00,
2013-09-12 13:26:00,86.3,73.2,30.00,West,259,5.0,5.0,65,0.00,,---,0.00,VWS V14.01,2013-09-12 17:26:00,
2013-09-12 13:31:00,86.1,72.5,29.99,SSE,148,0.0,3.0,64,0.00,,---,0.00,VWS V14.01,2013-09-12 17:31:00,
2013-09-12 13:36:00,86.3,72.2,29.99,South,191,4.0,7.0,63,0.00,,---,0.00,VWS V14.01,2013-09-12 17:36:00,
2013-09-12 13:41:00,86.4,73.2,29.99,South,174,6.0,8.0,65,0.00,,---,0.00,VWS V14.01,2013-09-12 17:41:00,
2013-09-12 13:46:00,86.4,72.3,29.99,SE,141,6.0,6.0,63,0.00,,---,0.00,VWS V14.01,2013-09-12 17:46:00,
2013-09-12 13:51:00,86.1,72.0,29.99,ESE,121,7.0,7.0,63,0.00,,---,0.00,VWS V14.01,2013-09-12 17:51:00,
2013-09-12 13:56:00,85.8,72.2,29.99,SE,143,5.0,8.0,64,0.00,,---,0.00,VWS V14.01,2013-09-12 17:56:00,
2013-09-12 14:01:00,85.3,71.8,29.99,SE,138,7.0,7.0,64,0.00,,---,0.00,VWS V14.01,2013-09-12 18:01:00,
2013-09-12 14:06:00,84.8,71.7,29.99,SW,218,7.0,8.0,65,0.00,,---,0.00,VWS V14.01,2013-09-12 18:06:00,
2013-09-12 14:11:00,85.0,71.5,29.99,South,183,4.0,7.0,64,0.00,,---,0.00,VWS V14.01,2013-09-12 18:11:00,
2013-09-12 14:16:00,85.0,71.0,29.98,SSE,162,7.0,7.0,63,0.00,,---,0.00,VWS V14.01,2013-09-12 18:16:00,
2013-09-12 14:21:00,85.0,71.5,29.98,South,188,5.0,7.0,64,0.00,,---,0.00,VWS V14.01,2013-09-12 18:21:00,
2013-09-12 14:26:00,84.7,70.7,29.98,SSE,155,3.0,5.0,63,0.00,,---,0.00,VWS V14.01,2013-09-12 18:26:00,
2013-09-12 14:31:00,84.6,70.6,29.98,SE,128,2.0,3.0,63,0.00,,---,0.00,VWS V14.01,2013-09-12 18:31:00,
2013-09-12 14:36:00,84.9,71.4,29.97,SSW,195,3.0,4.0,64,0.00,,---,0.00,VWS V14.01,2013-09-12 18:36:00,
2013-09-12 14:41:00,85.1,71.1,29.97,SSE,149,4.0,6.0,63,0.00,,---,0.00,VWS V14.01,2013-09-12 18:41:00,
2013-09-12 14:46:00,85.0,71.0,29.97,SE,139,4.0,7.0,63,0.00,,---,0.00,VWS V14.01,2013-09-12 18:46:00,
2013-09-12 14:51:00,85.2,71.7,29.97,South,174,7.0,8.0,64,0.00,,---,0.00,VWS V14.01,2013-09-12 18:51:00,
2013-09-12 14:56:00,85.3,70.8,29.96,South,169,6.0,7.0,62,0.00,,---,0.00,VWS V14.01,2013-09-12 18:56:00,
2013-09-12 15:01:00,85.0,71.0,29.96,SE,132,7.0,8.0,63,0.00,,---,0.00,VWS V14.01,2013-09-12 19:01:00,
2013-09-12 15:06:00,84.5,71.4,29.96,SE,144,5.0,7.0,65,0.00,,---,0.00,VWS V14.01,2013-09-12 19:06:00,
2013-09-12 15:11:00,84.7,71.6,29.95,SSW,193,6.0,6.0,65,0.00,,---,0.00,VWS V14.01,2013-09-12 19:11:00,
2013-09-12 15:16:00,84.7,70.7,29.95,SE,129,4.0,7.0,63,0.00,,---,0.00,VWS V14.01,2013-09-12 19:16:00,
2013-09-12 15:21:00,84.7,70.7,29.95,SSE,160,9.0,9.0,63,0.00,,---,0.00,VWS V14.01,2013-09-12 19:21:00,
2013-09-12 15:26:00,84.5,71.0,29.95,SE,124,4.0,6.0,64,0.00,,---,0.00,VWS V14.01,2013-09-12 19:26:00,
2013-09-12 15:31:00,84.4,71.4,29.94,SE,140,5.0,5.0,65,0.00,,---,0.00,VWS V14.01,2013-09-12 19:31:00,
2013-09-12 15:36:00,84.5,71.0,29.94,SE,145,6.0,6.0,64,0.00,,---,0.00,VWS V14.01,2013-09-12 19:36:00,
2013-09-12 15:41:00,84.3,71.3,29.94,SE,143,6.0,9.0,65,0.00,,---,0.00,VWS V14.01,2013-09-12 19:41:00,
2013-09-12 15:46:00,84.5,71.9,29.94,SSE,150,4.0,7.0,66,0.00,,---,0.00,VWS V14.01,2013-09-12 19:46:00,
2013-09-12 15:51:00,84.7,72.1,29.93,South,181,4.0,5.0,66,0.00,,---,0.00,VWS V14.01,2013-09-12 19:51:00,
2013-09-12 15:56:00,84.8,72.2,29.93,SSE,158,5.0,5.0,66,0.00,,---,0.00,VWS V14.01,2013-09-12 19:56:00,
2013-09-12 16:01:00,84.7,71.6,29.93,SSW,193,5.0,7.0,65,0.00,,---,0.00,VWS V14.01,2013-09-12 20:01:00,
2013-09-12 16:06:00,84.6,72.0,29.93,SSW,203,6.0,8.0,66,0.00,,---,0.00,VWS V14.01,2013-09-12 20:06:00,
2013-09-12 16:11:00,84.5,71.4,29.92,SSE,163,7.0,7.0,65,0.00,,---,0.00,VWS V14.01,2013-09-12 20:11:00,
2013-09-12 16:16:00,84.5,72.3,29.92,SSE,167,8.0,8.0,67,0.00,,---,0.00,VWS V14.01,2013-09-12 20:16:00,
2013-09-12 16:21:00,84.5,71.9,29.92,SSE,153,6.0,7.0,66,0.00,,---,0.00,VWS V14.01,2013-09-12 20:21:00,
2013-09-12 16:26:00,84.5,71.9,29.92,SE,143,5.0,5.0,66,0.00,,---,0.00,VWS V14.01,2013-09-12 20:26:00,
2013-09-12 16:31:00,84.5,72.3,29.92,South,172,1.0,7.0,67,0.00,,---,0.00,VWS V14.01,2013-09-12 20:31:00,
2013-09-12 16:36:00,84.6,73.3,29.92,South,179,6.0,6.0,69,0.00,,---,0.00,VWS V14.01,2013-09-12 20:36:00,
2013-09-12 16:41:00,84.7,72.1,29.91,SSE,148,3.0,6.0,66,0.00,,---,0.00,VWS V14.01,2013-09-12 20:41:00,
2013-09-12 16:46:00,84.7,72.5,29.91,SSE,156,6.0,6.0,67,0.00,,---,0.00,VWS V14.01,2013-09-12 20:46:00,
2013-09-12 16:51:00,84.7,71.6,29.91,SSE,163,4.0,6.0,65,0.00,,---,0.00,VWS V14.01,2013-09-12 20:51:00,
2013-09-12 16:56:00,84.7,72.1,29.91,South,169,2.0,5.0,66,0.00,,---,0.00,VWS V14.01,2013-09-12 20:56:00,
2013-09-12 17:01:00,84.7,72.1,29.91,South,181,3.0,5.0,66,0.00,,---,0.00,VWS V14.01,2013-09-12 21:01:00,
2013-09-12 17:06:00,84.9,71.4,29.91,SSE,150,6.0,8.0,64,0.00,,---,0.00,VWS V14.01,2013-09-12 21:06:00,
2013-09-12 17:11:00,85.0,71.9,29.91,WSW,239,3.0,4.0,65,0.00,,---,0.00,VWS V14.01,2013-09-12 21:11:00,
2013-09-12 17:16:00,85.0,71.9,29.91,South,177,7.0,8.0,65,0.00,,---,0.00,VWS V14.01,2013-09-12 21:16:00,
2013-09-12 17:21:00,84.8,72.2,29.91,South,174,5.0,5.0,66,0.00,,---,0.00,VWS V14.01,2013-09-12 21:21:00,
2013-09-12 17:26:00,85.0,72.4,29.91,SSW,202,5.0,6.0,66,0.00,,---,0.00,VWS V14.01,2013-09-12 21:26:00,
2013-09-12 17:31:00,85.0,72.4,29.91,SW,219,6.0,6.0,66,0.00,,---,0.00,VWS V14.01,2013-09-12 21:31:00,
2013-09-12 17:36:00,85.0,72.4,29.91,South,174,4.0,4.0,66,0.00,,---,0.00,VWS V14.01,2013-09-12 21:36:00,
2013-09-12 17:41:00,84.9,72.3,29.91,South,172,1.0,2.0,66,0.00,,---,0.00,VWS V14.01,2013-09-12 21:41:00,
2013-09-12 17:46:00,84.9,71.8,29.90,South,174,7.0,7.0,65,0.00,,---,0.00,VWS V14.01,2013-09-12 21:46:00,
2013-09-12 17:51:00,84.8,71.7,29.91,WSW,245,4.0,5.0,65,0.00,,---,0.00,VWS V14.01,2013-09-12 21:51:00,
2013-09-12 17:56:00,84.9,72.3,29.91,SSE,163,2.0,4.0,66,0.00,,---,0.00,VWS V14.01,2013-09-12 21:56:00,
2013-09-12 18:01:00,84.7,72.1,29.91,SSW,210,5.0,6.0,66,0.00,,---,0.00,VWS V14.01,2013-09-12 22:01:00,
2013-09-12 18:06:00,84.5,71.9,29.90,SSE,153,4.0,4.0,66,0.00,,---,0.00,VWS V14.01,2013-09-12 22:06:00,
2013-09-12 18:11:00,84.5,72.8,29.90,SW,226,2.0,4.0,68,0.00,,---,0.00,VWS V14.01,2013-09-12 22:11:00,
2013-09-12 18:16:00,84.4,71.8,29.90,SW,218,2.0,6.0,66,0.00,,---,0.00,VWS V14.01,2013-09-12 22:16:00,
2013-09-12 18:21:00,84.3,72.2,29.90,SSW,212,2.0,3.0,67,0.00,,---,0.00,VWS V14.01,2013-09-12 22:21:00,
2013-09-12 18:26:00,84.2,72.1,29.90,SSE,167,4.0,7.0,67,0.00,,---,0.00,VWS V14.01,2013-09-12 22:26:00,
2013-09-12 18:31:00,84.0,72.3,29.90,SSE,150,2.0,2.0,68,0.00,,---,0.00,VWS V14.01,2013-09-12 22:31:00,
2013-09-12 18:36:00,83.9,71.8,29.90,SSE,167,2.0,2.0,67,0.00,,---,0.00,VWS V14.01,2013-09-12 22:36:00,
2013-09-12 18:41:00,83.9,71.8,29.90,South,172,2.0,3.0,67,0.00,,---,0.00,VWS V14.01,2013-09-12 22:41:00,
2013-09-12 18:46:00,83.6,71.1,29.90,SSE,148,3.0,3.0,66,0.00,,---,0.00,VWS V14.01,2013-09-12 22:46:00,
2013-09-12 18:51:00,83.4,71.3,29.90,SSE,158,3.0,4.0,67,0.00,,---,0.00,VWS V14.01,2013-09-12 22:51:00,
2013-09-12 18:56:00,83.4,71.7,29.90,SSE,163,2.0,2.0,68,0.00,,---,0.00,VWS V14.01,2013-09-12 22:56:00,
2013-09-12 19:01:00,83.4,72.2,29.90,SSW,197,2.0,2.0,69,0.00,,---,0.00,VWS V14.01,2013-09-12 23:01:00,
2013-09-12 19:06:00,83.1,71.4,29.89,SSW,210,1.0,2.0,68,0.00,,---,0.00,VWS V14.01,2013-09-12 23:06:00,
2013-09-12 19:11:00,82.8,71.2,29.89,South,172,2.0,2.0,68,0.00,,---,0.00,VWS V14.01,2013-09-12 23:11:00,
2013-09-12 19:16:00,82.4,71.2,29.89,SSW,197,1.0,2.0,69,0.00,,---,0.00,VWS V14.01,2013-09-12 23:16:00,
2013-09-12 19:21:00,81.9,71.2,29.89,SE,141,1.0,1.0,70,0.00,,---,0.00,VWS V14.01,2013-09-12 23:21:00,
2013-09-12 19:26:00,81.4,71.1,29.89,South,170,2.0,2.0,71,0.00,,---,0.00,VWS V14.01,2013-09-12 23:26:00,
2013-09-12 19:31:00,81.0,71.1,29.89,South,186,0.0,1.0,72,0.00,,---,0.00,VWS V14.01,2013-09-12 23:31:00,
2013-09-12 19:36:00,80.7,70.8,29.90,South,173,1.0,1.0,72,0.00,,---,0.00,VWS V14.01,2013-09-12 23:36:00,
2013-09-12 19:41:00,80.4,71.0,29.90,SE,141,0.0,0.0,73,0.00,,---,0.00,VWS V14.01,2013-09-12 23:41:00,
2013-09-12 19:46:00,80.2,71.2,29.90,SSE,159,1.0,1.0,74,0.00,,---,0.00,VWS V14.01,2013-09-12 23:46:00,
2013-09-12 19:51:00,80.0,71.0,29.90,SW,214,0.0,1.0,74,0.00,,---,0.00,VWS V14.01,2013-09-12 23:51:00,
2013-09-12 19:56:00,79.8,70.8,29.90,SSW,211,0.0,0.0,74,0.00,,---,0.00,VWS V14.01,2013-09-12 23:56:00,
2013-09-12 20:01:00,79.6,71.0,29.90,SSE,160,0.0,1.0,75,0.00,,---,0.00,VWS V14.01,2013-09-13 00:01:00,
2013-09-12 20:06:00,79.5,71.3,29.90,SSE,150,0.0,0.0,76,0.00,,---,0.00,VWS V14.01,2013-09-13 00:06:00,
2013-09-12 20:11:00,79.4,71.2,29.90,SSE,158,0.0,0.0,76,0.00,,---,0.00,VWS V14.01,2013-09-13 00:11:00,
2013-09-12 20:16:00,79.3,71.1,29.90,SSE,158,0.0,0.0,76,0.00,,---,0.00,VWS V14.01,2013-09-13 00:16:00,
2013-09-12 20:21:00,79.1,70.9,29.90,SW,225,0.0,0.0,76,0.00,,---,0.00,VWS V14.01,2013-09-13 00:21:00,
2013-09-12 20:26:00,78.9,70.3,29.90,SSE,155,0.0,0.0,75,0.00,,---,0.00,VWS V14.01,2013-09-13 00:26:00,
2013-09-12 20:31:00,79.0,70.8,29.90,SE,143,0.0,1.0,76,0.00,,---,0.00,VWS V14.01,2013-09-13 00:31:00,
2013-09-12 20:36:00,78.9,70.7,29.90,SSE,148,0.0,0.0,76,0.00,,---,0.00,VWS V14.01,2013-09-13 00:36:00,
2013-09-12 20:41:00,78.8,70.6,29.91,WSW,243,0.0,0.0,76,0.00,,---,0.00,VWS V14.01,2013-09-13 00:41:00,
2013-09-12 20:46:00,78.8,71.0,29.91,SSE,160,0.0,0.0,77,0.00,,---,0.00,VWS V14.01,2013-09-13 00:46:00,
2013-09-12 20:51:00,78.8,71.0,29.91,SSE,158,0.0,0.0,77,0.00,,---,0.00,VWS V14.01,2013-09-13 00:51:00,
2013-09-12 20:56:00,78.8,71.0,29.91,SSE,151,0.0,0.0,77,0.00,,---,0.00,VWS V14.01,2013-09-13 00:56:00,
2013-09-12 21:01:00,78.8,71.0,29.90,South,176,0.0,0.0,77,0.00,,---,0.00,VWS V14.01,2013-09-13 01:01:00,
2013-09-12 21:06:00,78.7,71.3,29.90,SSE,148,0.0,0.0,78,0.00,,---,0.00,VWS V14.01,2013-09-13 01:06:00,
2013-09-12 21:11:00,78.8,71.4,29.90,SE,139,0.0,0.0,78,0.00,,---,0.00,VWS V14.01,2013-09-13 01:11:00,
2013-09-12 21:16:00,78.9,71.8,29.90,SW,217,3.0,3.0,79,0.00,,---,0.00,VWS V14.01,2013-09-13 01:16:00,
2013-09-12 21:21:00,79.0,71.9,29.91,SSE,149,0.0,3.0,79,0.00,,---,0.00,VWS V14.01,2013-09-13 01:21:00,
2013-09-12 21:26:00,78.9,71.8,29.91,SE,138,0.0,0.0,79,0.00,,---,0.00,VWS V14.01,2013-09-13 01:26:00,
2013-09-12 21:31:00,78.9,71.8,29.91,SW,231,0.0,1.0,79,0.00,,---,0.00,VWS V14.01,2013-09-13 01:31:00,
2013-09-12 21:36:00,78.9,72.2,29.91,SSW,207,0.0,0.0,80,0.00,,---,0.00,VWS V14.01,2013-09-13 01:36:00,
2013-09-12 21:41:00,78.8,72.5,29.91,West,270,0.0,1.0,81,0.00,,---,0.00,VWS V14.01,2013-09-13 01:41:00,
2013-09-12 21:46:00,78.9,72.9,29.91,WNW,289,0.0,0.0,82,0.00,,---,0.00,VWS V14.01,2013-09-13 01:46:00,
2013-09-12 21:51:00,78.9,72.9,29.91,WNW,301,0.0,1.0,82,0.00,,---,0.00,VWS V14.01,2013-09-13 01:51:00,
2013-09-12 21:56:00,78.9,72.9,29.91,West,266,1.0,1.0,82,0.00,,---,0.00,VWS V14.01,2013-09-13 01:56:00,
2013-09-12 22:01:00,78.9,72.9,29.91,West,268,1.0,2.0,82,0.00,,---,0.00,VWS V14.01,2013-09-13 02:01:00,
2013-09-12 22:06:00,78.8,73.2,29.91,West,278,2.0,2.0,83,0.00,,---,0.00,VWS V14.01,2013-09-13 02:06:00,
2013-09-12 22:10:00,78.9,73.3,29.91,WSW,256,0.0,0.0,83,0.00,,---,0.00,VWS V14.01,2013-09-13 02:10:00,
2013-09-12 22:15:00,79.0,73.4,29.91,WNW,285,2.0,2.0,83,0.00,,---,0.00,VWS V14.01,2013-09-13 02:15:00,
2013-09-12 22:20:00,78.9,73.3,29.91,West,264,0.0,0.0,83,0.00,,---,0.00,VWS V14.01,2013-09-13 02:20:00,
2013-09-12 22:25:00,78.9,73.3,29.91,WSW,245,0.0,0.0,83,0.00,,---,0.00,VWS V14.01,2013-09-13 02:25:00,
2013-09-12 22:30:00,78.8,73.6,29.91,West,273,0.0,3.0,84,0.00,,---,0.00,VWS V14.01,2013-09-13 02:30:00,
2013-09-12 22:35:00,78.8,73.6,29.91,WSW,255,1.0,1.0,84,0.00,,---,0.00,VWS V14.01,2013-09-13 02:35:00,
2013-09-12 22:40:00,78.6,73.7,29.91,SSW,210,0.0,0.0,85,0.00,,---,0.00,VWS V14.01,2013-09-13 02:40:00,
2013-09-12 22:45:00,78.5,73.6,29.91,West,262,0.0,0.0,85,0.00,,---,0.00,VWS V14.01,2013-09-13 02:45:00,
2013-09-12 22:50:00,78.5,74.0,29.91,West,262,2.0,2.0,86,0.00,,---,0.00,VWS V14.01,2013-09-13 02:50:00,
2013-09-12 22:55:00,78.5,74.0,29.91,West,271,0.0,0.0,86,0.00,,---,0.00,VWS V14.01,2013-09-13 02:55:00,
2013-09-12 23:00:00,78.5,74.3,29.91,SW,236,0.0,0.0,87,0.00,,---,0.00,VWS V14.01,2013-09-13 03:00:00,
2013-09-12 23:05:00,78.5,74.3,29.90,West,269,0.0,0.0,87,0.00,,---,0.00,VWS V14.01,2013-09-13 03:05:00,
2013-09-12 23:10:00,78.4,74.2,29.90,West,277,0.0,0.0,87,0.00,,---,0.00,VWS V14.01,2013-09-13 03:10:00,
2013-09-12 23:15:00,78.5,74.7,29.90,West,280,0.0,1.0,88,0.00,,---,0.00,VWS V14.01,2013-09-13 03:15:00,
2013-09-12 23:20:00,78.5,74.7,29.90,WNW,299,0.0,0.0,88,0.00,,---,0.00,VWS V14.01,2013-09-13 03:20:00,
2013-09-12 23:25:00,78.5,74.7,29.90,WNW,284,2.0,2.0,88,0.00,,---,0.00,VWS V14.01,2013-09-13 03:25:00,
2013-09-12 23:30:00,78.6,74.8,29.90,West,280,1.0,3.0,88,0.00,,---,0.00,VWS V14.01,2013-09-13 03:30:00,
2013-09-12 23:35:00,78.6,74.8,29.90,WNW,297,2.0,2.0,88,0.00,,---,0.00,VWS V14.01,2013-09-13 03:35:00,
2013-09-12 23:40:00,78.6,74.8,29.90,West,280,4.0,4.0,88,0.00,,---,0.00,VWS V14.01,2013-09-13 03:40:00,
2013-09-12 23:45:00,78.7,74.8,29.90,West,278,0.0,0.0,88,0.00,,---,0.00,VWS V14.01,2013-09-13 03:45:00,
2013-09-12 23:50:00,78.6,74.8,29.90,WNW,287,0.0,0.0,88,0.00,,---,0.00,VWS V14.01,2013-09-13 03:50:00,
2013-09-12 23:55:00,78.6,74.8,29.90,West,274,2.0,2.0,88,0.00,,---,0.00,VWS V14.01,2013-09-13 03:55:00,